sensor_id;sensor_type;location;lat;lon;timestamp;P1;durP1;ratioP1;P2;durP2;ratioP2
75716;SDS011;64333;50.138;14.332;2022-12-13T00:00:00;24.88;;;9.63;;
75716;SDS011;64333;50.138;14.332;2022-12-13T00:02:26;22.40;;;10.20;;
75716;SDS011;64333;50.138;14.332;2022-12-13T00:04:51;23.77;;;9.82;;
75716;SDS011;64333;50.138;14.332;2022-12-13T00:07:17;16.05;;;8.90;;
75716;SDS011;64333;50.138;14.332;2022-12-13T00:09:42;19.27;;;9.18;;
75716;SDS011;64333;50.138;14.332;2022-12-13T00:12:07;18.08;;;9.07;;
75716;SDS011;64333;50.138;14.332;2022-12-13T00:14:33;19.88;;;9.48;;
75716;SDS011;64333;50.138;14.332;2022-12-13T00:16:58;20.35;;;10.20;;
75716;SDS011;64333;50.138;14.332;2022-12-13T00:19:23;26.98;;;10.27;;
75716;SDS011;64333;50.138;14.332;2022-12-13T00:21:49;25.17;;;10.68;;
75716;SDS011;64333;50.138;14.332;2022-12-13T00:24:15;25.85;;;9.95;;
75716;SDS011;64333;50.138;14.332;2022-12-13T00:26:40;18.52;;;9.95;;
75716;SDS011;64333;50.138;14.332;2022-12-13T00:29:06;27.55;;;10.02;;
75716;SDS011;64333;50.138;14.332;2022-12-13T00:31:32;22.77;;;10.27;;
75716;SDS011;64333;50.138;14.332;2022-12-13T00:33:58;19.48;;;8.35;;
75716;SDS011;64333;50.138;14.332;2022-12-13T00:36:24;24.85;;;10.23;;
75716;SDS011;64333;50.138;14.332;2022-12-13T00:38:49;26.23;;;10.43;;
75716;SDS011;64333;50.138;14.332;2022-12-13T00:41:24;21.00;;;9.18;;
75716;SDS011;64333;50.138;14.332;2022-12-13T00:43:50;25.65;;;10.73;;
75716;SDS011;64333;50.138;14.332;2022-12-13T00:46:17;22.33;;;9.52;;
75716;SDS011;64333;50.138;14.332;2022-12-13T00:48:50;19.73;;;8.70;;
75716;SDS011;64333;50.138;14.332;2022-12-13T00:51:17;20.50;;;9.32;;
75716;SDS011;64333;50.138;14.332;2022-12-13T00:53:43;19.40;;;8.40;;
75716;SDS011;64333;50.138;14.332;2022-12-13T00:56:09;23.63;;;9.45;;
75716;SDS011;64333;50.138;14.332;2022-12-13T00:58:36;26.00;;;10.52;;
75716;SDS011;64333;50.138;14.332;2022-12-13T01:01:03;20.73;;;9.65;;
75716;SDS011;64333;50.138;14.332;2022-12-13T01:03:29;19.67;;;8.30;;
75716;SDS011;64333;50.138;14.332;2022-12-13T01:05:56;22.30;;;9.57;;
75716;SDS011;64333;50.138;14.332;2022-12-13T01:08:21;17.75;;;8.13;;
75716;SDS011;64333;50.138;14.332;2022-12-13T01:10:47;19.85;;;7.40;;
75716;SDS011;64333;50.138;14.332;2022-12-13T01:13:12;23.77;;;9.23;;
75716;SDS011;64333;50.138;14.332;2022-12-13T01:15:39;21.40;;;9.23;;
75716;SDS011;64333;50.138;14.332;2022-12-13T01:18:06;21.33;;;8.98;;
75716;SDS011;64333;50.138;14.332;2022-12-13T01:20:32;19.50;;;8.85;;
75716;SDS011;64333;50.138;14.332;2022-12-13T01:22:57;23.88;;;9.10;;
75716;SDS011;64333;50.138;14.332;2022-12-13T01:25:23;22.48;;;9.85;;
75716;SDS011;64333;50.138;14.332;2022-12-13T01:27:48;22.05;;;10.32;;
75716;SDS011;64333;50.138;14.332;2022-12-13T01:30:13;20.73;;;9.45;;
75716;SDS011;64333;50.138;14.332;2022-12-13T01:32:39;17.58;;;7.63;;
75716;SDS011;64333;50.138;14.332;2022-12-13T01:35:04;18.52;;;7.15;;
75716;SDS011;64333;50.138;14.332;2022-12-13T01:37:30;22.73;;;9.15;;
75716;SDS011;64333;50.138;14.332;2022-12-13T01:39:55;17.20;;;7.28;;
75716;SDS011;64333;50.138;14.332;2022-12-13T01:42:21;20.30;;;9.20;;
75716;SDS011;64333;50.138;14.332;2022-12-13T01:49:59;20.15;;;8.65;;
75716;SDS011;64333;50.138;14.332;2022-12-13T01:52:27;19.67;;;9.27;;
75716;SDS011;64333;50.138;14.332;2022-12-13T01:54:56;16.38;;;8.00;;
75716;SDS011;64333;50.138;14.332;2022-12-13T01:57:23;22.42;;;9.00;;
75716;SDS011;64333;50.138;14.332;2022-12-13T01:59:49;24.25;;;9.65;;
75716;SDS011;64333;50.138;14.332;2022-12-13T02:02:16;19.67;;;8.48;;
75716;SDS011;64333;50.138;14.332;2022-12-13T02:04:48;16.33;;;8.48;;
75716;SDS011;64333;50.138;14.332;2022-12-13T02:07:21;16.92;;;7.95;;
75716;SDS011;64333;50.138;14.332;2022-12-13T02:09:52;17.45;;;7.20;;
75716;SDS011;64333;50.138;14.332;2022-12-13T02:12:22;21.15;;;8.25;;
75716;SDS011;64333;50.138;14.332;2022-12-13T02:14:50;23.42;;;9.13;;
75716;SDS011;64333;50.138;14.332;2022-12-13T02:35:58;11.48;;;6.43;;
75716;SDS011;64333;50.138;14.332;2022-12-13T02:40:57;16.80;;;5.75;;
75716;SDS011;64333;50.138;14.332;2022-12-13T02:43:47;9.30;;;4.97;;
75716;SDS011;64333;50.138;14.332;2022-12-13T02:46:18;13.05;;;6.68;;
75716;SDS011;64333;50.138;14.332;2022-12-13T02:48:46;16.73;;;7.25;;
75716;SDS011;64333;50.138;14.332;2022-12-13T02:51:15;16.60;;;8.60;;
75716;SDS011;64333;50.138;14.332;2022-12-13T02:53:42;17.20;;;7.22;;
75716;SDS011;64333;50.138;14.332;2022-12-13T02:56:09;14.70;;;7.90;;
75716;SDS011;64333;50.138;14.332;2022-12-13T02:58:36;18.17;;;7.20;;
75716;SDS011;64333;50.138;14.332;2022-12-13T03:01:19;13.68;;;6.25;;
75716;SDS011;64333;50.138;14.332;2022-12-13T03:04:05;15.15;;;7.75;;
75716;SDS011;64333;50.138;14.332;2022-12-13T03:12:24;20.73;;;9.40;;
75716;SDS011;64333;50.138;14.332;2022-12-13T03:17:51;15.57;;;7.90;;
75716;SDS011;64333;50.138;14.332;2022-12-13T03:20:17;16.13;;;8.52;;
75716;SDS011;64333;50.138;14.332;2022-12-13T03:22:49;21.98;;;7.82;;
75716;SDS011;64333;50.138;14.332;2022-12-13T03:25:15;15.43;;;6.95;;
75716;SDS011;64333;50.138;14.332;2022-12-13T03:27:40;15.68;;;7.03;;
75716;SDS011;64333;50.138;14.332;2022-12-13T03:30:06;18.10;;;8.13;;
75716;SDS011;64333;50.138;14.332;2022-12-13T03:32:32;15.45;;;7.70;;
75716;SDS011;64333;50.138;14.332;2022-12-13T03:34:57;15.35;;;7.15;;
75716;SDS011;64333;50.138;14.332;2022-12-13T03:37:23;19.92;;;7.13;;
75716;SDS011;64333;50.138;14.332;2022-12-13T03:39:48;18.13;;;7.97;;
75716;SDS011;64333;50.138;14.332;2022-12-13T03:42:14;15.35;;;7.10;;
75716;SDS011;64333;50.138;14.332;2022-12-13T03:44:41;18.60;;;7.47;;
75716;SDS011;64333;50.138;14.332;2022-12-13T03:47:07;18.42;;;7.43;;
75716;SDS011;64333;50.138;14.332;2022-12-13T03:49:32;21.17;;;8.23;;
75716;SDS011;64333;50.138;14.332;2022-12-13T03:51:58;19.20;;;8.23;;
75716;SDS011;64333;50.138;14.332;2022-12-13T03:54:23;25.30;;;8.52;;
75716;SDS011;64333;50.138;14.332;2022-12-13T03:56:48;23.98;;;10.55;;
75716;SDS011;64333;50.138;14.332;2022-12-13T03:59:14;21.88;;;7.45;;
75716;SDS011;64333;50.138;14.332;2022-12-13T04:01:39;16.42;;;8.00;;
75716;SDS011;64333;50.138;14.332;2022-12-13T04:04:05;18.73;;;9.32;;
75716;SDS011;64333;50.138;14.332;2022-12-13T04:06:30;18.55;;;8.63;;
75716;SDS011;64333;50.138;14.332;2022-12-13T04:08:56;22.65;;;10.52;;
75716;SDS011;64333;50.138;14.332;2022-12-13T04:11:21;28.98;;;10.65;;
75716;SDS011;64333;50.138;14.332;2022-12-13T04:14:06;25.70;;;10.45;;
75716;SDS011;64333;50.138;14.332;2022-12-13T04:16:31;19.90;;;9.60;;
75716;SDS011;64333;50.138;14.332;2022-12-13T04:18:56;19.23;;;9.25;;
75716;SDS011;64333;50.138;14.332;2022-12-13T04:21:22;17.58;;;8.90;;
75716;SDS011;64333;50.138;14.332;2022-12-13T04:23:47;13.75;;;6.47;;
75716;SDS011;64333;50.138;14.332;2022-12-13T04:26:13;13.75;;;6.82;;
75716;SDS011;64333;50.138;14.332;2022-12-13T04:28:38;19.65;;;8.00;;
75716;SDS011;64333;50.138;14.332;2022-12-13T04:31:04;14.60;;;6.25;;
75716;SDS011;64333;50.138;14.332;2022-12-13T04:33:30;15.70;;;6.85;;
75716;SDS011;64333;50.138;14.332;2022-12-13T04:35:56;15.63;;;6.72;;
75716;SDS011;64333;50.138;14.332;2022-12-13T04:38:22;17.75;;;6.00;;
75716;SDS011;64333;50.138;14.332;2022-12-13T04:40:47;17.48;;;6.80;;
75716;SDS011;64333;50.138;14.332;2022-12-13T04:43:13;14.60;;;6.72;;
75716;SDS011;64333;50.138;14.332;2022-12-13T04:45:38;16.65;;;7.68;;
75716;SDS011;64333;50.138;14.332;2022-12-13T04:48:04;15.27;;;6.30;;
75716;SDS011;64333;50.138;14.332;2022-12-13T04:50:30;10.57;;;5.78;;
75716;SDS011;64333;50.138;14.332;2022-12-13T04:52:55;12.57;;;6.43;;
75716;SDS011;64333;50.138;14.332;2022-12-13T04:55:20;12.07;;;6.25;;
75716;SDS011;64333;50.138;14.332;2022-12-13T04:57:46;17.48;;;7.90;;
75716;SDS011;64333;50.138;14.332;2022-12-13T05:00:11;25.73;;;10.85;;
75716;SDS011;64333;50.138;14.332;2022-12-13T05:02:38;25.48;;;11.63;;
75716;SDS011;64333;50.138;14.332;2022-12-13T05:05:05;29.30;;;10.25;;
75716;SDS011;64333;50.138;14.332;2022-12-13T05:07:32;26.08;;;11.35;;
75716;SDS011;64333;50.138;14.332;2022-12-13T05:09:57;21.83;;;11.20;;
75716;SDS011;64333;50.138;14.332;2022-12-13T05:12:23;25.70;;;10.18;;
75716;SDS011;64333;50.138;14.332;2022-12-13T05:14:49;29.42;;;13.88;;
75716;SDS011;64333;50.138;14.332;2022-12-13T05:17:15;41.20;;;19.75;;
75716;SDS011;64333;50.138;14.332;2022-12-13T05:19:40;31.02;;;14.85;;
75716;SDS011;64333;50.138;14.332;2022-12-13T05:22:07;22.75;;;11.65;;
75716;SDS011;64333;50.138;14.332;2022-12-13T05:24:39;17.20;;;9.88;;
75716;SDS011;64333;50.138;14.332;2022-12-13T05:27:05;21.38;;;9.70;;
75716;SDS011;64333;50.138;14.332;2022-12-13T05:29:31;20.35;;;9.35;;
75716;SDS011;64333;50.138;14.332;2022-12-13T05:31:56;20.58;;;9.63;;
75716;SDS011;64333;50.138;14.332;2022-12-13T05:34:21;22.98;;;10.10;;
75716;SDS011;64333;50.138;14.332;2022-12-13T05:36:47;21.25;;;9.05;;
75716;SDS011;64333;50.138;14.332;2022-12-13T05:39:12;20.75;;;9.13;;
75716;SDS011;64333;50.138;14.332;2022-12-13T05:41:38;23.85;;;11.07;;
75716;SDS011;64333;50.138;14.332;2022-12-13T05:44:03;22.42;;;10.80;;
75716;SDS011;64333;50.138;14.332;2022-12-13T05:46:29;25.45;;;11.40;;
75716;SDS011;64333;50.138;14.332;2022-12-13T05:48:54;21.20;;;10.00;;
75716;SDS011;64333;50.138;14.332;2022-12-13T05:51:20;17.20;;;8.13;;
75716;SDS011;64333;50.138;14.332;2022-12-13T05:53:45;12.00;;;7.25;;
75716;SDS011;64333;50.138;14.332;2022-12-13T05:56:11;19.45;;;8.25;;
75716;SDS011;64333;50.138;14.332;2022-12-13T05:58:37;13.60;;;6.95;;
75716;SDS011;64333;50.138;14.332;2022-12-13T06:01:08;13.57;;;8.68;;
75716;SDS011;64333;50.138;14.332;2022-12-13T06:03:35;16.92;;;8.93;;
75716;SDS011;64333;50.138;14.332;2022-12-13T06:06:01;18.23;;;7.18;;
75716;SDS011;64333;50.138;14.332;2022-12-13T06:08:27;19.70;;;9.27;;
75716;SDS011;64333;50.138;14.332;2022-12-13T06:10:54;19.20;;;10.15;;
75716;SDS011;64333;50.138;14.332;2022-12-13T06:13:20;18.60;;;8.70;;
75716;SDS011;64333;50.138;14.332;2022-12-13T06:15:45;22.95;;;10.95;;
75716;SDS011;64333;50.138;14.332;2022-12-13T06:18:11;16.38;;;8.23;;
75716;SDS011;64333;50.138;14.332;2022-12-13T06:20:36;16.13;;;7.63;;
75716;SDS011;64333;50.138;14.332;2022-12-13T06:23:02;15.73;;;7.47;;
75716;SDS011;64333;50.138;14.332;2022-12-13T06:25:28;21.42;;;9.25;;
75716;SDS011;64333;50.138;14.332;2022-12-13T06:27:53;24.90;;;10.95;;
75716;SDS011;64333;50.138;14.332;2022-12-13T06:30:19;21.50;;;10.07;;
75716;SDS011;64333;50.138;14.332;2022-12-13T06:32:46;24.65;;;9.63;;
75716;SDS011;64333;50.138;14.332;2022-12-13T06:35:15;19.58;;;9.02;;
75716;SDS011;64333;50.138;14.332;2022-12-13T06:37:40;20.90;;;10.45;;
75716;SDS011;64333;50.138;14.332;2022-12-13T06:40:06;28.27;;;15.00;;
75716;SDS011;64333;50.138;14.332;2022-12-13T06:42:32;28.58;;;15.60;;
75716;SDS011;64333;50.138;14.332;2022-12-13T06:44:57;23.50;;;12.35;;
75716;SDS011;64333;50.138;14.332;2022-12-13T06:47:23;29.67;;;14.30;;
75716;SDS011;64333;50.138;14.332;2022-12-13T06:49:50;20.85;;;10.30;;
75716;SDS011;64333;50.138;14.332;2022-12-13T06:52:15;12.95;;;8.98;;
75716;SDS011;64333;50.138;14.332;2022-12-13T06:54:41;17.13;;;7.85;;
75716;SDS011;64333;50.138;14.332;2022-12-13T06:57:07;16.27;;;8.48;;
75716;SDS011;64333;50.138;14.332;2022-12-13T06:59:34;17.83;;;8.85;;
75716;SDS011;64333;50.138;14.332;2022-12-13T07:01:59;23.15;;;10.85;;
75716;SDS011;64333;50.138;14.332;2022-12-13T07:04:25;22.13;;;9.45;;
75716;SDS011;64333;50.138;14.332;2022-12-13T07:06:50;24.85;;;11.73;;
75716;SDS011;64333;50.138;14.332;2022-12-13T07:09:15;26.05;;;12.13;;
75716;SDS011;64333;50.138;14.332;2022-12-13T07:11:41;21.80;;;9.80;;
75716;SDS011;64333;50.138;14.332;2022-12-13T07:14:07;33.55;;;13.48;;
75716;SDS011;64333;50.138;14.332;2022-12-13T07:16:33;20.40;;;10.00;;
75716;SDS011;64333;50.138;14.332;2022-12-13T07:19:00;32.60;;;17.67;;
75716;SDS011;64333;50.138;14.332;2022-12-13T07:21:27;27.02;;;13.23;;
75716;SDS011;64333;50.138;14.332;2022-12-13T07:23:53;26.17;;;12.60;;
75716;SDS011;64333;50.138;14.332;2022-12-13T07:26:19;27.98;;;13.95;;
75716;SDS011;64333;50.138;14.332;2022-12-13T07:28:44;22.23;;;12.07;;
75716;SDS011;64333;50.138;14.332;2022-12-13T07:31:11;24.85;;;10.20;;
75716;SDS011;64333;50.138;14.332;2022-12-13T07:33:37;21.60;;;10.80;;
75716;SDS011;64333;50.138;14.332;2022-12-13T07:38:35;23.55;;;11.80;;
75716;SDS011;64333;50.138;14.332;2022-12-13T07:41:01;19.67;;;9.65;;
75716;SDS011;64333;50.138;14.332;2022-12-13T07:43:28;23.30;;;11.35;;
75716;SDS011;64333;50.138;14.332;2022-12-13T07:45:56;20.08;;;10.93;;
75716;SDS011;64333;50.138;14.332;2022-12-13T07:48:22;21.77;;;10.32;;
75716;SDS011;64333;50.138;14.332;2022-12-13T07:50:48;23.88;;;10.85;;
75716;SDS011;64333;50.138;14.332;2022-12-13T07:53:13;23.17;;;12.88;;
75716;SDS011;64333;50.138;14.332;2022-12-13T07:55:38;28.02;;;13.65;;
75716;SDS011;64333;50.138;14.332;2022-12-13T07:58:10;29.55;;;14.40;;
75716;SDS011;64333;50.138;14.332;2022-12-13T08:00:38;26.85;;;12.52;;
75716;SDS011;64333;50.138;14.332;2022-12-13T08:03:05;21.73;;;12.23;;
75716;SDS011;64333;50.138;14.332;2022-12-13T08:05:31;22.38;;;11.27;;
75716;SDS011;64333;50.138;14.332;2022-12-13T08:07:58;20.50;;;10.90;;
75716;SDS011;64333;50.138;14.332;2022-12-13T08:10:24;21.10;;;10.93;;
75716;SDS011;64333;50.138;14.332;2022-12-13T08:12:49;23.50;;;11.25;;
75716;SDS011;64333;50.138;14.332;2022-12-13T08:15:15;25.45;;;12.95;;
75716;SDS011;64333;50.138;14.332;2022-12-13T08:17:41;22.60;;;12.98;;
75716;SDS011;64333;50.138;14.332;2022-12-13T08:20:06;24.60;;;12.18;;
75716;SDS011;64333;50.138;14.332;2022-12-13T08:22:32;21.48;;;12.52;;
75716;SDS011;64333;50.138;14.332;2022-12-13T08:24:58;22.45;;;11.65;;
75716;SDS011;64333;50.138;14.332;2022-12-13T08:27:23;22.17;;;11.75;;
75716;SDS011;64333;50.138;14.332;2022-12-13T08:29:48;17.35;;;10.55;;
75716;SDS011;64333;50.138;14.332;2022-12-13T08:32:14;20.40;;;11.65;;
75716;SDS011;64333;50.138;14.332;2022-12-13T08:34:40;20.30;;;10.95;;
75716;SDS011;64333;50.138;14.332;2022-12-13T08:37:05;18.85;;;10.75;;
75716;SDS011;64333;50.138;14.332;2022-12-13T08:39:32;18.83;;;10.75;;
75716;SDS011;64333;50.138;14.332;2022-12-13T08:41:59;21.63;;;11.60;;
75716;SDS011;64333;50.138;14.332;2022-12-13T08:44:24;21.85;;;11.55;;
75716;SDS011;64333;50.138;14.332;2022-12-13T08:46:49;22.40;;;11.20;;
75716;SDS011;64333;50.138;14.332;2022-12-13T08:49:15;20.42;;;11.52;;
75716;SDS011;64333;50.138;14.332;2022-12-13T08:51:40;24.38;;;12.23;;
75716;SDS011;64333;50.138;14.332;2022-12-13T08:54:05;20.83;;;11.95;;
75716;SDS011;64333;50.138;14.332;2022-12-13T08:56:31;21.27;;;11.70;;
75716;SDS011;64333;50.138;14.332;2022-12-13T08:58:56;22.90;;;12.35;;
75716;SDS011;64333;50.138;14.332;2022-12-13T09:01:22;23.67;;;12.48;;
75716;SDS011;64333;50.138;14.332;2022-12-13T09:03:47;22.42;;;13.70;;
75716;SDS011;64333;50.138;14.332;2022-12-13T09:06:14;36.83;;;17.52;;
75716;SDS011;64333;50.138;14.332;2022-12-13T09:08:41;29.02;;;14.30;;
75716;SDS011;64333;50.138;14.332;2022-12-13T09:11:08;27.67;;;14.15;;
75716;SDS011;64333;50.138;14.332;2022-12-13T09:13:35;20.83;;;12.55;;
75716;SDS011;64333;50.138;14.332;2022-12-13T09:16:06;21.45;;;12.48;;
75716;SDS011;64333;50.138;14.332;2022-12-13T09:18:33;23.48;;;12.45;;
75716;SDS011;64333;50.138;14.332;2022-12-13T09:20:59;22.10;;;12.32;;
75716;SDS011;64333;50.138;14.332;2022-12-13T09:23:24;22.90;;;12.70;;
75716;SDS011;64333;50.138;14.332;2022-12-13T09:25:53;17.17;;;11.18;;
75716;SDS011;64333;50.138;14.332;2022-12-13T09:28:22;23.55;;;12.63;;
75716;SDS011;64333;50.138;14.332;2022-12-13T09:30:48;22.27;;;13.02;;
75716;SDS011;64333;50.138;14.332;2022-12-13T09:33:14;20.40;;;12.20;;
75716;SDS011;64333;50.138;14.332;2022-12-13T09:35:39;19.67;;;12.05;;
75716;SDS011;64333;50.138;14.332;2022-12-13T09:38:05;18.58;;;12.73;;
75716;SDS011;64333;50.138;14.332;2022-12-13T09:40:30;22.92;;;11.90;;
75716;SDS011;64333;50.138;14.332;2022-12-13T09:42:58;22.27;;;12.35;;
75716;SDS011;64333;50.138;14.332;2022-12-13T09:45:26;20.52;;;12.90;;
75716;SDS011;64333;50.138;14.332;2022-12-13T09:47:53;20.35;;;12.60;;
75716;SDS011;64333;50.138;14.332;2022-12-13T09:52:56;24.40;;;14.23;;
75716;SDS011;64333;50.138;14.332;2022-12-13T09:55:24;24.13;;;14.95;;
75716;SDS011;64333;50.138;14.332;2022-12-13T09:58:04;23.88;;;14.65;;
75716;SDS011;64333;50.138;14.332;2022-12-13T10:00:35;26.65;;;14.45;;
75716;SDS011;64333;50.138;14.332;2022-12-13T10:03:01;23.27;;;14.68;;
75716;SDS011;64333;50.138;14.332;2022-12-13T10:05:33;24.30;;;15.52;;
75716;SDS011;64333;50.138;14.332;2022-12-13T10:08:10;21.48;;;14.73;;
75716;SDS011;64333;50.138;14.332;2022-12-13T10:10:37;21.55;;;14.45;;
75716;SDS011;64333;50.138;14.332;2022-12-13T10:13:16;25.08;;;15.60;;
75716;SDS011;64333;50.138;14.332;2022-12-13T10:15:44;25.23;;;14.60;;
75716;SDS011;64333;50.138;14.332;2022-12-13T10:18:16;26.10;;;14.65;;
75716;SDS011;64333;50.138;14.332;2022-12-13T10:20:49;24.60;;;15.30;;
75716;SDS011;64333;50.138;14.332;2022-12-13T10:23:15;23.42;;;14.35;;
75716;SDS011;64333;50.138;14.332;2022-12-13T10:25:49;26.33;;;16.30;;
75716;SDS011;64333;50.138;14.332;2022-12-13T10:28:22;27.88;;;15.90;;
75716;SDS011;64333;50.138;14.332;2022-12-13T10:30:57;27.58;;;16.35;;
75716;SDS011;64333;50.138;14.332;2022-12-13T10:33:34;29.95;;;17.77;;
75716;SDS011;64333;50.138;14.332;2022-12-13T10:38:30;33.30;;;17.08;;
75716;SDS011;64333;50.138;14.332;2022-12-13T10:44:32;39.08;;;19.67;;
75716;SDS011;64333;50.138;14.332;2022-12-13T10:49:36;38.80;;;21.95;;
75716;SDS011;64333;50.138;14.332;2022-12-13T10:55:03;51.88;;;28.55;;
75716;SDS011;64333;50.138;14.332;2022-12-13T10:57:51;41.65;;;23.38;;
75716;SDS011;64333;50.138;14.332;2022-12-13T11:00:29;46.50;;;28.52;;
75716;SDS011;64333;50.138;14.332;2022-12-13T11:03:00;30.80;;;19.83;;
75716;SDS011;64333;50.138;14.332;2022-12-13T11:07:52;28.83;;;20.15;;
75716;SDS011;64333;50.138;14.332;2022-12-13T11:12:45;28.92;;;18.65;;
75716;SDS011;64333;50.138;14.332;2022-12-13T11:15:18;35.70;;;21.27;;
75716;SDS011;64333;50.138;14.332;2022-12-13T11:17:47;33.97;;;23.17;;
75716;SDS011;64333;50.138;14.332;2022-12-13T11:20:17;33.53;;;20.05;;
75716;SDS011;64333;50.138;14.332;2022-12-13T11:22:50;32.45;;;18.02;;
75716;SDS011;64333;50.138;14.332;2022-12-13T11:25:30;31.58;;;18.48;;
75716;SDS011;64333;50.138;14.332;2022-12-13T11:30:39;33.97;;;19.98;;
75716;SDS011;64333;50.138;14.332;2022-12-13T11:46:57;37.88;;;24.38;;
75716;SDS011;64333;50.138;14.332;2022-12-13T11:49:32;31.42;;;18.48;;
75716;SDS011;64333;50.138;14.332;2022-12-13T11:52:05;26.85;;;16.63;;
75716;SDS011;64333;50.138;14.332;2022-12-13T11:57:12;29.30;;;16.50;;
75716;SDS011;64333;50.138;14.332;2022-12-13T12:00:09;26.02;;;15.75;;
75716;SDS011;64333;50.138;14.332;2022-12-13T12:02:43;27.80;;;15.57;;
75716;SDS011;64333;50.138;14.332;2022-12-13T12:05:18;29.27;;;17.23;;
75716;SDS011;64333;50.138;14.332;2022-12-13T12:08:17;25.95;;;16.67;;
75716;SDS011;64333;50.138;14.332;2022-12-13T12:10:48;25.13;;;17.10;;
75716;SDS011;64333;50.138;14.332;2022-12-13T12:13:49;29.23;;;16.42;;
75716;SDS011;64333;50.138;14.332;2022-12-13T12:16:24;26.48;;;15.73;;
75716;SDS011;64333;50.138;14.332;2022-12-13T12:18:54;26.45;;;15.65;;
75716;SDS011;64333;50.138;14.332;2022-12-13T12:26:42;27.73;;;15.07;;
75716;SDS011;64333;50.138;14.332;2022-12-13T12:29:47;22.27;;;13.98;;
75716;SDS011;64333;50.138;14.332;2022-12-13T12:32:32;28.55;;;15.23;;
75716;SDS011;64333;50.138;14.332;2022-12-13T12:43:32;24.23;;;14.95;;
75716;SDS011;64333;50.138;14.332;2022-12-13T12:46:05;24.95;;;15.75;;
75716;SDS011;64333;50.138;14.332;2022-12-13T12:59:16;27.33;;;15.55;;
75716;SDS011;64333;50.138;14.332;2022-12-13T13:02:07;25.20;;;15.55;;
75716;SDS011;64333;50.138;14.332;2022-12-13T13:04:45;27.42;;;15.25;;
75716;SDS011;64333;50.138;14.332;2022-12-13T13:07:26;24.80;;;14.68;;
75716;SDS011;64333;50.138;14.332;2022-12-13T13:09:56;25.42;;;13.90;;
75716;SDS011;64333;50.138;14.332;2022-12-13T13:12:23;24.85;;;14.30;;
75716;SDS011;64333;50.138;14.332;2022-12-13T13:14:50;26.85;;;15.05;;
75716;SDS011;64333;50.138;14.332;2022-12-13T13:19:43;28.10;;;15.48;;
75716;SDS011;64333;50.138;14.332;2022-12-13T13:22:32;30.33;;;15.32;;
75716;SDS011;64333;50.138;14.332;2022-12-13T13:25:12;28.10;;;15.52;;
75716;SDS011;64333;50.138;14.332;2022-12-13T13:27:40;25.40;;;13.85;;
75716;SDS011;64333;50.138;14.332;2022-12-13T13:32:40;27.42;;;14.30;;
75716;SDS011;64333;50.138;14.332;2022-12-13T13:38:46;31.17;;;15.55;;
75716;SDS011;64333;50.138;14.332;2022-12-13T13:40:42;26.98;;;14.27;;
75716;SDS011;64333;50.138;14.332;2022-12-13T13:54:30;31.55;;;14.48;;
75716;SDS011;64333;50.138;14.332;2022-12-13T14:00:37;34.65;;;15.40;;
75716;SDS011;64333;50.138;14.332;2022-12-13T14:19:17;25.45;;;11.40;;
75716;SDS011;64333;50.138;14.332;2022-12-13T14:21:52;31.85;;;13.90;;
75716;SDS011;64333;50.138;14.332;2022-12-13T14:29:44;33.88;;;15.85;;
75716;SDS011;64333;50.138;14.332;2022-12-13T14:34:45;33.50;;;16.02;;
75716;SDS011;64333;50.138;14.332;2022-12-13T14:37:21;36.03;;;16.52;;
75716;SDS011;64333;50.138;14.332;2022-12-13T14:39:54;32.60;;;14.15;;
75716;SDS011;64333;50.138;14.332;2022-12-13T14:42:21;36.03;;;14.63;;
75716;SDS011;64333;50.138;14.332;2022-12-13T14:44:49;37.65;;;15.38;;
75716;SDS011;64333;50.138;14.332;2022-12-13T14:47:15;33.28;;;14.75;;
75716;SDS011;64333;50.138;14.332;2022-12-13T14:49:42;30.20;;;14.45;;
75716;SDS011;64333;50.138;14.332;2022-12-13T14:54:46;30.75;;;14.18;;
75716;SDS011;64333;50.138;14.332;2022-12-13T14:57:15;29.55;;;12.93;;
75716;SDS011;64333;50.138;14.332;2022-12-13T14:59:50;31.05;;;13.60;;
75716;SDS011;64333;50.138;14.332;2022-12-13T15:02:18;40.42;;;15.38;;
75716;SDS011;64333;50.138;14.332;2022-12-13T15:04:46;35.13;;;15.52;;
75716;SDS011;64333;50.138;14.332;2022-12-13T15:09:56;37.55;;;15.95;;
75716;SDS011;64333;50.138;14.332;2022-12-13T15:12:24;40.28;;;16.48;;
75716;SDS011;64333;50.138;14.332;2022-12-13T15:14:55;34.30;;;15.00;;
75716;SDS011;64333;50.138;14.332;2022-12-13T15:19:58;34.33;;;15.45;;
75716;SDS011;64333;50.138;14.332;2022-12-13T15:22:24;35.75;;;15.57;;
75716;SDS011;64333;50.138;14.332;2022-12-13T15:24:50;40.40;;;17.42;;
75716;SDS011;64333;50.138;14.332;2022-12-13T15:27:16;40.42;;;16.30;;
75716;SDS011;64333;50.138;14.332;2022-12-13T15:29:43;98.47;;;34.10;;
75716;SDS011;64333;50.138;14.332;2022-12-13T15:32:12;80.93;;;29.77;;
75716;SDS011;64333;50.138;14.332;2022-12-13T15:34:44;40.08;;;17.65;;
75716;SDS011;64333;50.138;14.332;2022-12-13T15:39:39;43.20;;;18.60;;
75716;SDS011;64333;50.138;14.332;2022-12-13T15:42:12;49.30;;;20.35;;
75716;SDS011;64333;50.138;14.332;2022-12-13T15:45:02;54.67;;;22.27;;
75716;SDS011;64333;50.138;14.332;2022-12-13T15:47:30;82.68;;;32.60;;
75716;SDS011;64333;50.138;14.332;2022-12-13T15:49:57;98.70;;;39.75;;
75716;SDS011;64333;50.138;14.332;2022-12-13T15:52:38;52.75;;;22.20;;
75716;SDS011;64333;50.138;14.332;2022-12-13T16:02:48;72.97;;;31.80;;
75716;SDS011;64333;50.138;14.332;2022-12-13T16:07:57;88.82;;;34.80;;
75716;SDS011;64333;50.138;14.332;2022-12-13T16:10:24;92.55;;;34.63;;
75716;SDS011;64333;50.138;14.332;2022-12-13T16:12:52;68.22;;;26.00;;
75716;SDS011;64333;50.138;14.332;2022-12-13T16:15:47;57.75;;;23.88;;
75716;SDS011;64333;50.138;14.332;2022-12-13T16:20:51;156.45;;;52.40;;
75716;SDS011;64333;50.138;14.332;2022-12-13T16:23:17;76.47;;;27.70;;
75716;SDS011;64333;50.138;14.332;2022-12-13T16:25:42;80.47;;;30.50;;
75716;SDS011;64333;50.138;14.332;2022-12-13T16:28:17;71.90;;;28.10;;
75716;SDS011;64333;50.138;14.332;2022-12-13T16:33:17;60.83;;;25.13;;
75716;SDS011;64333;50.138;14.332;2022-12-13T16:35:43;69.22;;;27.67;;
75716;SDS011;64333;50.138;14.332;2022-12-13T16:38:09;52.97;;;20.85;;
75716;SDS011;64333;50.138;14.332;2022-12-13T16:40:35;57.72;;;22.08;;
75716;SDS011;64333;50.138;14.332;2022-12-13T16:43:02;58.67;;;23.35;;
75716;SDS011;64333;50.138;14.332;2022-12-13T16:45:30;52.83;;;22.63;;
75716;SDS011;64333;50.138;14.332;2022-12-13T16:48:02;57.33;;;22.90;;
75716;SDS011;64333;50.138;14.332;2022-12-13T16:50:30;37.92;;;17.33;;
75716;SDS011;64333;50.138;14.332;2022-12-13T16:52:55;52.33;;;23.27;;
75716;SDS011;64333;50.138;14.332;2022-12-13T16:55:21;50.47;;;20.40;;
75716;SDS011;64333;50.138;14.332;2022-12-13T16:57:56;59.05;;;22.67;;
75716;SDS011;64333;50.138;14.332;2022-12-13T17:00:26;41.70;;;18.77;;
75716;SDS011;64333;50.138;14.332;2022-12-13T17:02:59;43.72;;;18.02;;
75716;SDS011;64333;50.138;14.332;2022-12-13T17:05:25;39.72;;;15.43;;
75716;SDS011;64333;50.138;14.332;2022-12-13T17:07:51;59.10;;;22.83;;
75716;SDS011;64333;50.138;14.332;2022-12-13T17:10:17;67.05;;;26.05;;
75716;SDS011;64333;50.138;14.332;2022-12-13T17:12:43;63.40;;;25.30;;